Terminal Aerodrome Forecast
Issued by NWS Grand Forks, ND

Home | Current Version | Previous Version | Graphics & Text | Print | Product List | Glossary On
Versions: 1 2 3 4 5 6 7 8 9 10 11 12 13 14 15 16 17
000
FTUS43 KFGF 110542
TAFGFK
TAF
KGFK 110542Z 1106/1206 25009KT P6SM BKN040
      TEMPO 1106/1110 P6SM -SNRA
     FM111100 34017G26KT P6SM OVC008
      TEMPO 1111/1112 4SM -SN OVC003
     FM111200 35019G29KT 6SM BLSN OVC008
     FM111400 35019G28KT P6SM OVC008
     FM111600 35018G27KT 6SM BLSN BKN010
     FM112000 35019G28KT P6SM BKN015
     FM112100 35018G27KT P6SM SCT015
     FM120500 31004KT P6SM SCT060=

USA.gov is the U.S. government's official web portal to all federal, state and local government web resources and services.